sensor_id;sensor_type;location;lat;lon;timestamp;P1;durP1;ratioP1;P2;durP2;ratioP2
74158;SDS011;62511;47.970;11.774;2023-07-08T00:02:20;7.95;;;3.58;;
74158;SDS011;62511;47.970;11.774;2023-07-08T00:04:46;8.13;;;3.60;;
74158;SDS011;62511;47.970;11.774;2023-07-08T00:07:12;7.28;;;3.60;;
74158;SDS011;62511;47.970;11.774;2023-07-08T00:09:39;8.00;;;3.92;;
74158;SDS011;62511;47.970;11.774;2023-07-08T00:12:08;6.80;;;3.65;;
74158;SDS011;62511;47.970;11.774;2023-07-08T00:14:35;8.07;;;3.80;;
74158;SDS011;62511;47.970;11.774;2023-07-08T00:17:01;8.77;;;3.85;;
74158;SDS011;62511;47.970;11.774;2023-07-08T00:19:27;8.68;;;3.95;;
74158;SDS011;62511;47.970;11.774;2023-07-08T00:21:53;9.13;;;4.07;;
74158;SDS011;62511;47.970;11.774;2023-07-08T00:24:19;6.57;;;2.83;;
74158;SDS011;62511;47.970;11.774;2023-07-08T00:26:45;7.70;;;3.40;;
74158;SDS011;62511;47.970;11.774;2023-07-08T00:29:11;7.00;;;3.55;;
74158;SDS011;62511;47.970;11.774;2023-07-08T00:31:37;8.00;;;3.85;;
74158;SDS011;62511;47.970;11.774;2023-07-08T00:34:03;7.32;;;3.90;;
74158;SDS011;62511;47.970;11.774;2023-07-08T00:36:29;6.82;;;3.38;;
74158;SDS011;62511;47.970;11.774;2023-07-08T00:38:56;6.75;;;3.70;;
74158;SDS011;62511;47.970;11.774;2023-07-08T00:41:29;7.93;;;3.72;;
74158;SDS011;62511;47.970;11.774;2023-07-08T00:43:57;9.85;;;3.95;;
74158;SDS011;62511;47.970;11.774;2023-07-08T00:51:29;8.55;;;4.20;;
74158;SDS011;62511;47.970;11.774;2023-07-08T00:53:55;8.30;;;3.72;;
74158;SDS011;62511;47.970;11.774;2023-07-08T00:56:22;9.43;;;4.38;;
74158;SDS011;62511;47.970;11.774;2023-07-08T00:58:56;9.88;;;4.07;;
74158;SDS011;62511;47.970;11.774;2023-07-08T01:01:24;9.57;;;3.95;;
74158;SDS011;62511;47.970;11.774;2023-07-08T01:03:52;8.15;;;4.13;;
74158;SDS011;62511;47.970;11.774;2023-07-08T01:06:19;9.13;;;4.30;;
74158;SDS011;62511;47.970;11.774;2023-07-08T01:08:47;11.73;;;4.72;;
74158;SDS011;62511;47.970;11.774;2023-07-08T01:11:15;7.00;;;3.75;;
74158;SDS011;62511;47.970;11.774;2023-07-08T01:13:41;7.93;;;4.00;;
74158;SDS011;62511;47.970;11.774;2023-07-08T01:16:08;8.45;;;4.22;;
74158;SDS011;62511;47.970;11.774;2023-07-08T01:18:35;9.57;;;4.30;;
74158;SDS011;62511;47.970;11.774;2023-07-08T01:21:03;7.07;;;4.00;;
74158;SDS011;62511;47.970;11.774;2023-07-08T01:23:31;10.82;;;4.65;;
74158;SDS011;62511;47.970;11.774;2023-07-08T01:25:57;8.68;;;3.70;;
74158;SDS011;62511;47.970;11.774;2023-07-08T01:28:25;12.00;;;4.28;;
74158;SDS011;62511;47.970;11.774;2023-07-08T01:30:51;7.22;;;3.67;;
74158;SDS011;62511;47.970;11.774;2023-07-08T01:33:18;8.07;;;3.80;;
74158;SDS011;62511;47.970;11.774;2023-07-08T01:35:46;8.80;;;4.10;;
74158;SDS011;62511;47.970;11.774;2023-07-08T01:38:14;7.10;;;3.92;;
74158;SDS011;62511;47.970;11.774;2023-07-08T01:40:48;9.50;;;3.90;;
74158;SDS011;62511;47.970;11.774;2023-07-08T01:45:41;8.57;;;3.58;;
74158;SDS011;62511;47.970;11.774;2023-07-08T01:48:12;7.75;;;4.03;;
74158;SDS011;62511;47.970;11.774;2023-07-08T01:50:40;9.85;;;3.60;;
74158;SDS011;62511;47.970;11.774;2023-07-08T01:53:12;11.50;;;4.65;;
74158;SDS011;62511;47.970;11.774;2023-07-08T01:55:41;10.25;;;4.35;;
74158;SDS011;62511;47.970;11.774;2023-07-08T01:58:07;10.57;;;4.60;;
74158;SDS011;62511;47.970;11.774;2023-07-08T02:00:33;8.93;;;4.47;;
74158;SDS011;62511;47.970;11.774;2023-07-08T02:02:59;9.20;;;4.80;;
74158;SDS011;62511;47.970;11.774;2023-07-08T02:05:25;10.05;;;4.68;;
74158;SDS011;62511;47.970;11.774;2023-07-08T02:07:51;10.35;;;4.47;;
74158;SDS011;62511;47.970;11.774;2023-07-08T02:10:17;9.45;;;4.43;;
74158;SDS011;62511;47.970;11.774;2023-07-08T02:12:43;10.70;;;4.85;;
74158;SDS011;62511;47.970;11.774;2023-07-08T02:15:09;8.57;;;4.15;;
74158;SDS011;62511;47.970;11.774;2023-07-08T02:17:35;8.90;;;3.90;;
74158;SDS011;62511;47.970;11.774;2023-07-08T02:20:01;8.77;;;4.45;;
74158;SDS011;62511;47.970;11.774;2023-07-08T02:22:28;11.77;;;5.28;;
74158;SDS011;62511;47.970;11.774;2023-07-08T02:24:54;11.45;;;4.70;;
74158;SDS011;62511;47.970;11.774;2023-07-08T02:27:20;9.65;;;3.95;;
74158;SDS011;62511;47.970;11.774;2023-07-08T02:29:46;10.80;;;4.45;;
74158;SDS011;62511;47.970;11.774;2023-07-08T02:32:12;8.82;;;4.38;;
74158;SDS011;62511;47.970;11.774;2023-07-08T02:34:38;10.35;;;4.47;;
74158;SDS011;62511;47.970;11.774;2023-07-08T02:37:04;10.52;;;4.20;;
74158;SDS011;62511;47.970;11.774;2023-07-08T02:39:30;11.05;;;5.10;;
74158;SDS011;62511;47.970;11.774;2023-07-08T02:41:56;9.43;;;4.60;;
74158;SDS011;62511;47.970;11.774;2023-07-08T02:44:22;10.75;;;4.60;;
74158;SDS011;62511;47.970;11.774;2023-07-08T02:46:48;8.73;;;4.35;;
74158;SDS011;62511;47.970;11.774;2023-07-08T02:49:14;8.50;;;3.80;;
74158;SDS011;62511;47.970;11.774;2023-07-08T02:51:40;9.23;;;4.18;;
74158;SDS011;62511;47.970;11.774;2023-07-08T02:54:06;8.57;;;3.80;;
74158;SDS011;62511;47.970;11.774;2023-07-08T02:56:32;7.60;;;3.67;;
74158;SDS011;62511;47.970;11.774;2023-07-08T02:58:58;8.10;;;3.92;;
74158;SDS011;62511;47.970;11.774;2023-07-08T03:01:24;7.82;;;3.85;;
74158;SDS011;62511;47.970;11.774;2023-07-08T03:03:51;10.07;;;4.13;;
74158;SDS011;62511;47.970;11.774;2023-07-08T03:06:21;9.75;;;4.15;;
74158;SDS011;62511;47.970;11.774;2023-07-08T03:08:48;8.82;;;4.07;;
74158;SDS011;62511;47.970;11.774;2023-07-08T03:11:14;10.65;;;4.20;;
74158;SDS011;62511;47.970;11.774;2023-07-08T03:13:40;7.80;;;3.83;;
74158;SDS011;62511;47.970;11.774;2023-07-08T03:16:06;7.07;;;3.75;;
74158;SDS011;62511;47.970;11.774;2023-07-08T03:18:37;8.65;;;4.10;;
74158;SDS011;62511;47.970;11.774;2023-07-08T03:23:37;7.18;;;3.47;;
74158;SDS011;62511;47.970;11.774;2023-07-08T03:26:03;7.50;;;3.72;;
74158;SDS011;62511;47.970;11.774;2023-07-08T03:28:29;8.18;;;3.10;;
74158;SDS011;62511;47.970;11.774;2023-07-08T03:30:56;9.25;;;3.97;;
74158;SDS011;62511;47.970;11.774;2023-07-08T03:33:22;9.13;;;3.67;;
74158;SDS011;62511;47.970;11.774;2023-07-08T03:35:49;7.38;;;3.50;;
74158;SDS011;62511;47.970;11.774;2023-07-08T03:38:15;8.23;;;3.92;;
74158;SDS011;62511;47.970;11.774;2023-07-08T03:40:41;9.40;;;4.10;;
74158;SDS011;62511;47.970;11.774;2023-07-08T03:43:09;8.32;;;3.90;;
74158;SDS011;62511;47.970;11.774;2023-07-08T03:45:35;10.75;;;3.90;;
74158;SDS011;62511;47.970;11.774;2023-07-08T03:48:02;8.90;;;3.70;;
74158;SDS011;62511;47.970;11.774;2023-07-08T03:52:54;8.68;;;4.10;;
74158;SDS011;62511;47.970;11.774;2023-07-08T03:55:20;8.73;;;4.18;;
74158;SDS011;62511;47.970;11.774;2023-07-08T03:57:46;8.65;;;4.82;;
74158;SDS011;62511;47.970;11.774;2023-07-08T04:00:13;13.10;;;4.75;;
74158;SDS011;62511;47.970;11.774;2023-07-08T04:02:40;8.00;;;4.05;;
74158;SDS011;62511;47.970;11.774;2023-07-08T04:05:06;10.63;;;4.20;;
74158;SDS011;62511;47.970;11.774;2023-07-08T04:07:33;9.63;;;4.78;;
74158;SDS011;62511;47.970;11.774;2023-07-08T04:09:59;13.30;;;4.80;;
74158;SDS011;62511;47.970;11.774;2023-07-08T04:12:26;9.55;;;4.47;;
74158;SDS011;62511;47.970;11.774;2023-07-08T04:14:52;9.38;;;4.47;;
74158;SDS011;62511;47.970;11.774;2023-07-08T04:17:18;10.15;;;4.20;;
74158;SDS011;62511;47.970;11.774;2023-07-08T04:19:44;9.70;;;4.45;;
74158;SDS011;62511;47.970;11.774;2023-07-08T04:22:10;9.95;;;4.22;;
74158;SDS011;62511;47.970;11.774;2023-07-08T04:24:37;9.75;;;4.00;;
74158;SDS011;62511;47.970;11.774;2023-07-08T04:27:03;10.40;;;4.38;;
74158;SDS011;62511;47.970;11.774;2023-07-08T04:29:29;7.55;;;4.07;;
74158;SDS011;62511;47.970;11.774;2023-07-08T04:31:55;8.10;;;4.03;;
74158;SDS011;62511;47.970;11.774;2023-07-08T04:34:21;8.63;;;3.88;;
74158;SDS011;62511;47.970;11.774;2023-07-08T04:36:47;10.60;;;4.50;;
74158;SDS011;62511;47.970;11.774;2023-07-08T04:39:13;7.40;;;4.05;;
74158;SDS011;62511;47.970;11.774;2023-07-08T04:41:40;8.43;;;4.30;;
74158;SDS011;62511;47.970;11.774;2023-07-08T04:44:09;7.88;;;4.03;;
74158;SDS011;62511;47.970;11.774;2023-07-08T04:49:04;10.10;;;4.00;;
74158;SDS011;62511;47.970;11.774;2023-07-08T04:51:30;9.25;;;4.03;;
74158;SDS011;62511;47.970;11.774;2023-07-08T04:53:57;8.52;;;4.40;;
74158;SDS011;62511;47.970;11.774;2023-07-08T04:56:24;11.20;;;5.00;;
74158;SDS011;62511;47.970;11.774;2023-07-08T04:58:51;9.85;;;4.70;;
74158;SDS011;62511;47.970;11.774;2023-07-08T05:01:17;8.27;;;4.13;;
74158;SDS011;62511;47.970;11.774;2023-07-08T05:03:43;13.40;;;4.95;;
74158;SDS011;62511;47.970;11.774;2023-07-08T05:06:08;9.82;;;4.55;;
74158;SDS011;62511;47.970;11.774;2023-07-08T05:08:35;8.48;;;4.00;;
74158;SDS011;62511;47.970;11.774;2023-07-08T05:11:01;8.93;;;3.53;;
74158;SDS011;62511;47.970;11.774;2023-07-08T05:13:26;10.45;;;3.95;;
74158;SDS011;62511;47.970;11.774;2023-07-08T05:15:52;8.55;;;4.65;;
74158;SDS011;62511;47.970;11.774;2023-07-08T05:18:20;8.45;;;4.00;;
74158;SDS011;62511;47.970;11.774;2023-07-08T05:20:52;7.10;;;3.97;;
74158;SDS011;62511;47.970;11.774;2023-07-08T05:23:19;9.20;;;4.00;;
74158;SDS011;62511;47.970;11.774;2023-07-08T05:25:45;11.40;;;4.80;;
74158;SDS011;62511;47.970;11.774;2023-07-08T05:28:11;7.30;;;4.20;;
74158;SDS011;62511;47.970;11.774;2023-07-08T05:30:39;7.90;;;4.85;;
74158;SDS011;62511;47.970;11.774;2023-07-08T05:33:05;7.97;;;4.45;;
74158;SDS011;62511;47.970;11.774;2023-07-08T05:35:31;10.10;;;4.75;;
74158;SDS011;62511;47.970;11.774;2023-07-08T05:37:57;8.95;;;4.65;;
74158;SDS011;62511;47.970;11.774;2023-07-08T05:40:23;7.53;;;4.32;;
74158;SDS011;62511;47.970;11.774;2023-07-08T05:42:49;7.90;;;3.80;;
74158;SDS011;62511;47.970;11.774;2023-07-08T05:45:15;7.72;;;4.25;;
74158;SDS011;62511;47.970;11.774;2023-07-08T05:47:42;9.25;;;4.10;;
74158;SDS011;62511;47.970;11.774;2023-07-08T05:50:08;8.60;;;3.90;;
74158;SDS011;62511;47.970;11.774;2023-07-08T05:52:34;8.32;;;4.00;;
74158;SDS011;62511;47.970;11.774;2023-07-08T05:55:00;8.77;;;4.60;;
74158;SDS011;62511;47.970;11.774;2023-07-08T05:57:26;9.68;;;4.43;;
74158;SDS011;62511;47.970;11.774;2023-07-08T05:59:52;7.85;;;3.50;;
74158;SDS011;62511;47.970;11.774;2023-07-08T06:02:18;10.15;;;4.40;;
74158;SDS011;62511;47.970;11.774;2023-07-08T06:04:46;8.27;;;4.30;;
74158;SDS011;62511;47.970;11.774;2023-07-08T06:07:12;8.90;;;4.07;;
74158;SDS011;62511;47.970;11.774;2023-07-08T06:09:38;8.05;;;3.92;;
74158;SDS011;62511;47.970;11.774;2023-07-08T06:12:04;8.55;;;4.35;;
74158;SDS011;62511;47.970;11.774;2023-07-08T06:14:31;7.00;;;3.58;;
74158;SDS011;62511;47.970;11.774;2023-07-08T06:16:57;6.82;;;3.95;;
74158;SDS011;62511;47.970;11.774;2023-07-08T06:19:24;6.85;;;3.75;;
74158;SDS011;62511;47.970;11.774;2023-07-08T06:21:50;9.50;;;3.85;;
74158;SDS011;62511;47.970;11.774;2023-07-08T06:24:16;6.75;;;3.38;;
74158;SDS011;62511;47.970;11.774;2023-07-08T06:26:42;8.30;;;4.05;;
74158;SDS011;62511;47.970;11.774;2023-07-08T06:29:08;8.23;;;4.10;;
74158;SDS011;62511;47.970;11.774;2023-07-08T06:31:34;7.82;;;3.83;;
74158;SDS011;62511;47.970;11.774;2023-07-08T06:34:00;9.00;;;3.90;;
74158;SDS011;62511;47.970;11.774;2023-07-08T06:38:53;6.35;;;3.67;;
74158;SDS011;62511;47.970;11.774;2023-07-08T06:41:19;11.75;;;4.38;;
74158;SDS011;62511;47.970;11.774;2023-07-08T06:43:45;7.05;;;3.80;;
74158;SDS011;62511;47.970;11.774;2023-07-08T06:46:11;8.55;;;4.07;;
74158;SDS011;62511;47.970;11.774;2023-07-08T06:48:37;7.35;;;3.85;;
74158;SDS011;62511;47.970;11.774;2023-07-08T06:51:03;6.57;;;3.63;;
74158;SDS011;62511;47.970;11.774;2023-07-08T06:53:29;7.18;;;3.67;;
74158;SDS011;62511;47.970;11.774;2023-07-08T06:55:55;8.88;;;4.00;;
74158;SDS011;62511;47.970;11.774;2023-07-08T06:58:21;11.70;;;3.97;;
74158;SDS011;62511;47.970;11.774;2023-07-08T07:00:47;7.10;;;3.50;;
74158;SDS011;62511;47.970;11.774;2023-07-08T07:03:13;7.13;;;3.60;;
74158;SDS011;62511;47.970;11.774;2023-07-08T07:05:39;7.60;;;3.63;;
74158;SDS011;62511;47.970;11.774;2023-07-08T07:08:05;9.23;;;3.88;;
74158;SDS011;62511;47.970;11.774;2023-07-08T07:10:32;6.32;;;4.20;;
74158;SDS011;62511;47.970;11.774;2023-07-08T07:12:59;8.10;;;4.05;;
74158;SDS011;62511;47.970;11.774;2023-07-08T07:15:25;10.30;;;4.40;;
74158;SDS011;62511;47.970;11.774;2023-07-08T07:17:51;6.88;;;3.45;;
74158;SDS011;62511;47.970;11.774;2023-07-08T07:20:17;9.90;;;4.20;;
74158;SDS011;62511;47.970;11.774;2023-07-08T07:22:43;9.18;;;4.05;;
74158;SDS011;62511;47.970;11.774;2023-07-08T07:25:09;6.20;;;3.45;;
74158;SDS011;62511;47.970;11.774;2023-07-08T07:27:35;6.18;;;3.58;;
74158;SDS011;62511;47.970;11.774;2023-07-08T07:30:01;8.40;;;4.10;;
74158;SDS011;62511;47.970;11.774;2023-07-08T07:32:29;7.20;;;3.47;;
74158;SDS011;62511;47.970;11.774;2023-07-08T07:34:57;8.90;;;3.80;;
74158;SDS011;62511;47.970;11.774;2023-07-08T07:37:24;9.10;;;4.20;;
74158;SDS011;62511;47.970;11.774;2023-07-08T07:39:50;8.20;;;4.35;;
74158;SDS011;62511;47.970;11.774;2023-07-08T07:42:18;6.78;;;3.65;;
74158;SDS011;62511;47.970;11.774;2023-07-08T07:44:44;7.65;;;3.90;;
74158;SDS011;62511;47.970;11.774;2023-07-08T07:47:10;7.55;;;3.53;;
74158;SDS011;62511;47.970;11.774;2023-07-08T07:49:36;7.47;;;3.80;;
74158;SDS011;62511;47.970;11.774;2023-07-08T07:52:02;7.88;;;3.67;;
74158;SDS011;62511;47.970;11.774;2023-07-08T07:54:28;8.88;;;3.75;;
74158;SDS011;62511;47.970;11.774;2023-07-08T07:56:54;7.63;;;3.72;;
74158;SDS011;62511;47.970;11.774;2023-07-08T07:59:20;7.97;;;3.20;;
74158;SDS011;62511;47.970;11.774;2023-07-08T08:01:46;6.35;;;3.28;;
74158;SDS011;62511;47.970;11.774;2023-07-08T08:04:12;6.13;;;3.22;;
74158;SDS011;62511;47.970;11.774;2023-07-08T08:06:39;9.75;;;3.50;;
74158;SDS011;62511;47.970;11.774;2023-07-08T08:09:05;9.02;;;3.50;;
74158;SDS011;62511;47.970;11.774;2023-07-08T08:13:57;7.63;;;3.15;;
74158;SDS011;62511;47.970;11.774;2023-07-08T08:16:23;6.18;;;3.05;;
74158;SDS011;62511;47.970;11.774;2023-07-08T08:18:49;10.65;;;3.60;;
74158;SDS011;62511;47.970;11.774;2023-07-08T08:21:15;8.85;;;3.63;;
74158;SDS011;62511;47.970;11.774;2023-07-08T08:23:41;6.10;;;3.25;;
74158;SDS011;62511;47.970;11.774;2023-07-08T08:26:08;7.55;;;3.00;;
74158;SDS011;62511;47.970;11.774;2023-07-08T08:28:34;7.85;;;3.25;;
74158;SDS011;62511;47.970;11.774;2023-07-08T08:31:00;7.88;;;3.30;;
74158;SDS011;62511;47.970;11.774;2023-07-08T08:33:26;5.40;;;3.05;;
74158;SDS011;62511;47.970;11.774;2023-07-08T08:35:52;4.72;;;3.08;;
74158;SDS011;62511;47.970;11.774;2023-07-08T08:38:18;6.45;;;3.50;;
74158;SDS011;62511;47.970;11.774;2023-07-08T08:40:44;9.65;;;3.65;;
74158;SDS011;62511;47.970;11.774;2023-07-08T08:43:12;6.65;;;3.42;;
74158;SDS011;62511;47.970;11.774;2023-07-08T08:45:41;7.32;;;3.80;;
74158;SDS011;62511;47.970;11.774;2023-07-08T08:48:11;7.90;;;3.40;;
74158;SDS011;62511;47.970;11.774;2023-07-08T08:51:12;7.07;;;3.80;;
74158;SDS011;62511;47.970;11.774;2023-07-08T08:53:31;6.95;;;3.65;;
74158;SDS011;62511;47.970;11.774;2023-07-08T08:56:03;6.30;;;3.65;;
74158;SDS011;62511;47.970;11.774;2023-07-08T09:01:06;5.70;;;3.70;;
74158;SDS011;62511;47.970;11.774;2023-07-08T09:03:37;9.38;;;3.60;;
74158;SDS011;62511;47.970;11.774;2023-07-08T09:06:17;6.57;;;3.35;;
74158;SDS011;62511;47.970;11.774;2023-07-08T09:08:44;7.20;;;3.50;;
74158;SDS011;62511;47.970;11.774;2023-07-08T09:11:27;7.90;;;3.85;;
74158;SDS011;62511;47.970;11.774;2023-07-08T09:13:59;9.38;;;3.90;;
74158;SDS011;62511;47.970;11.774;2023-07-08T09:21:45;7.22;;;4.05;;
74158;SDS011;62511;47.970;11.774;2023-07-08T09:24:16;7.55;;;3.85;;
74158;SDS011;62511;47.970;11.774;2023-07-08T09:26:43;6.75;;;3.53;;
74158;SDS011;62511;47.970;11.774;2023-07-08T09:29:10;7.20;;;3.53;;
74158;SDS011;62511;47.970;11.774;2023-07-08T09:31:38;6.75;;;3.60;;
74158;SDS011;62511;47.970;11.774;2023-07-08T09:34:05;8.82;;;4.38;;
74158;SDS011;62511;47.970;11.774;2023-07-08T09:36:32;7.88;;;3.75;;
74158;SDS011;62511;47.970;11.774;2023-07-08T09:38:58;8.00;;;3.78;;
74158;SDS011;62511;47.970;11.774;2023-07-08T09:41:28;8.43;;;4.03;;
74158;SDS011;62511;47.970;11.774;2023-07-08T09:44:02;7.50;;;3.97;;
74158;SDS011;62511;47.970;11.774;2023-07-08T09:46:28;11.43;;;3.50;;
74158;SDS011;62511;47.970;11.774;2023-07-08T09:48:55;7.45;;;4.03;;
74158;SDS011;62511;47.970;11.774;2023-07-08T09:51:22;5.65;;;3.38;;
74158;SDS011;62511;47.970;11.774;2023-07-08T09:56:14;8.30;;;4.03;;
74158;SDS011;62511;47.970;11.774;2023-07-08T09:58:40;6.35;;;3.78;;
74158;SDS011;62511;47.970;11.774;2023-07-08T10:01:10;8.07;;;4.07;;
74158;SDS011;62511;47.970;11.774;2023-07-08T10:03:37;7.32;;;3.83;;
74158;SDS011;62511;47.970;11.774;2023-07-08T10:06:05;7.10;;;3.80;;
74158;SDS011;62511;47.970;11.774;2023-07-08T10:08:36;11.63;;;4.40;;
74158;SDS011;62511;47.970;11.774;2023-07-08T10:13:40;7.93;;;3.55;;
74158;SDS011;62511;47.970;11.774;2023-07-08T10:18:33;7.90;;;3.58;;
74158;SDS011;62511;47.970;11.774;2023-07-08T10:21:01;5.93;;;3.58;;
74158;SDS011;62511;47.970;11.774;2023-07-08T10:23:46;6.88;;;3.97;;
74158;SDS011;62511;47.970;11.774;2023-07-08T10:26:31;6.25;;;3.50;;
74158;SDS011;62511;47.970;11.774;2023-07-08T10:29:11;7.50;;;3.28;;
74158;SDS011;62511;47.970;11.774;2023-07-08T10:31:46;6.15;;;3.85;;
74158;SDS011;62511;47.970;11.774;2023-07-08T10:36:51;5.68;;;2.83;;
74158;SDS011;62511;47.970;11.774;2023-07-08T10:39:22;9.43;;;3.72;;
74158;SDS011;62511;47.970;11.774;2023-07-08T10:41:56;6.88;;;3.40;;
74158;SDS011;62511;47.970;11.774;2023-07-08T10:44:27;8.80;;;3.50;;
74158;SDS011;62511;47.970;11.774;2023-07-08T10:47:13;6.90;;;3.63;;
74158;SDS011;62511;47.970;11.774;2023-07-08T10:57:49;5.47;;;3.15;;
74158;SDS011;62511;47.970;11.774;2023-07-08T11:06:07;8.88;;;3.58;;
74158;SDS011;62511;47.970;11.774;2023-07-08T11:08:32;6.68;;;2.90;;
74158;SDS011;62511;47.970;11.774;2023-07-08T11:11:03;6.55;;;3.40;;
74158;SDS011;62511;47.970;11.774;2023-07-08T11:13:30;6.30;;;3.10;;
74158;SDS011;62511;47.970;11.774;2023-07-08T11:15:59;6.57;;;3.38;;
74158;SDS011;62511;47.970;11.774;2023-07-08T11:21:19;6.95;;;3.50;;
74158;SDS011;62511;47.970;11.774;2023-07-08T11:23:48;7.63;;;3.47;;
74158;SDS011;62511;47.970;11.774;2023-07-08T11:28:41;7.15;;;3.50;;
74158;SDS011;62511;47.970;11.774;2023-07-08T11:31:07;7.18;;;3.25;;
74158;SDS011;62511;47.970;11.774;2023-07-08T11:36:00;7.13;;;3.55;;
74158;SDS011;62511;47.970;11.774;2023-07-08T11:38:26;7.35;;;2.97;;
74158;SDS011;62511;47.970;11.774;2023-07-08T11:40:56;6.32;;;3.30;;
74158;SDS011;62511;47.970;11.774;2023-07-08T11:43:25;8.27;;;3.42;;
74158;SDS011;62511;47.970;11.774;2023-07-08T11:45:53;7.13;;;3.38;;
74158;SDS011;62511;47.970;11.774;2023-07-08T11:48:27;6.22;;;3.17;;
74158;SDS011;62511;47.970;11.774;2023-07-08T11:50:53;4.38;;;2.97;;
74158;SDS011;62511;47.970;11.774;2023-07-08T11:58:28;5.55;;;3.15;;
74158;SDS011;62511;47.970;11.774;2023-07-08T12:03:21;7.13;;;3.30;;
74158;SDS011;62511;47.970;11.774;2023-07-08T12:05:47;6.22;;;3.30;;
74158;SDS011;62511;47.970;11.774;2023-07-08T12:08:14;8.13;;;3.63;;
74158;SDS011;62511;47.970;11.774;2023-07-08T12:13:12;6.72;;;3.40;;
74158;SDS011;62511;47.970;11.774;2023-07-08T12:15:39;7.45;;;3.30;;
74158;SDS011;62511;47.970;11.774;2023-07-08T12:20:44;5.90;;;3.20;;
74158;SDS011;62511;47.970;11.774;2023-07-08T12:23:13;6.28;;;3.22;;
74158;SDS011;62511;47.970;11.774;2023-07-08T12:25:39;6.53;;;3.67;;
74158;SDS011;62511;47.970;11.774;2023-07-08T12:28:06;6.03;;;2.78;;
74158;SDS011;62511;47.970;11.774;2023-07-08T12:30:32;9.18;;;3.45;;
74158;SDS011;62511;47.970;11.774;2023-07-08T12:32:59;8.13;;;3.88;;
74158;SDS011;62511;47.970;11.774;2023-07-08T12:35:26;5.97;;;3.42;;
74158;SDS011;62511;47.970;11.774;2023-07-08T12:37:55;7.55;;;3.47;;
74158;SDS011;62511;47.970;11.774;2023-07-08T12:40:22;6.22;;;3.30;;
74158;SDS011;62511;47.970;11.774;2023-07-08T12:42:48;6.90;;;4.15;;
74158;SDS011;62511;47.970;11.774;2023-07-08T12:47:40;5.15;;;3.10;;
74158;SDS011;62511;47.970;11.774;2023-07-08T12:50:08;5.68;;;2.80;;
74158;SDS011;62511;47.970;11.774;2023-07-08T12:52:34;5.32;;;2.72;;
74158;SDS011;62511;47.970;11.774;2023-07-08T12:55:00;7.35;;;3.50;;
74158;SDS011;62511;47.970;11.774;2023-07-08T12:57:26;11.63;;;3.47;;
74158;SDS011;62511;47.970;11.774;2023-07-08T12:59:52;11.60;;;4.05;;
74158;SDS011;62511;47.970;11.774;2023-07-08T13:04:45;7.32;;;3.42;;
74158;SDS011;62511;47.970;11.774;2023-07-08T13:10:07;6.57;;;3.65;;
74158;SDS011;62511;47.970;11.774;2023-07-08T13:12:40;6.70;;;3.63;;
74158;SDS011;62511;47.970;11.774;2023-07-08T13:15:10;5.90;;;3.42;;
74158;SDS011;62511;47.970;11.774;2023-07-08T13:17:40;6.80;;;3.40;;
74158;SDS011;62511;47.970;11.774;2023-07-08T13:20:08;6.05;;;3.53;;
74158;SDS011;62511;47.970;11.774;2023-07-08T13:22:36;7.25;;;4.20;;
74158;SDS011;62511;47.970;11.774;2023-07-08T13:25:02;7.07;;;3.45;;
74158;SDS011;62511;47.970;11.774;2023-07-08T13:27:28;5.88;;;3.70;;
74158;SDS011;62511;47.970;11.774;2023-07-08T13:29:55;7.35;;;3.10;;
74158;SDS011;62511;47.970;11.774;2023-07-08T13:32:30;8.48;;;4.00;;
74158;SDS011;62511;47.970;11.774;2023-07-08T13:34:56;6.68;;;3.63;;
74158;SDS011;62511;47.970;11.774;2023-07-08T13:37:22;8.20;;;3.60;;
74158;SDS011;62511;47.970;11.774;2023-07-08T13:39:51;6.93;;;3.67;;
74158;SDS011;62511;47.970;11.774;2023-07-08T13:42:19;5.50;;;3.10;;
74158;SDS011;62511;47.970;11.774;2023-07-08T13:44:45;5.15;;;2.90;;
74158;SDS011;62511;47.970;11.774;2023-07-08T13:47:19;7.38;;;3.58;;
74158;SDS011;62511;47.970;11.774;2023-07-08T13:49:45;6.53;;;3.22;;
74158;SDS011;62511;47.970;11.774;2023-07-08T13:52:18;7.10;;;3.00;;
74158;SDS011;62511;47.970;11.774;2023-07-08T13:54:54;6.20;;;3.20;;
74158;SDS011;62511;47.970;11.774;2023-07-08T13:57:23;6.15;;;3.15;;
74158;SDS011;62511;47.970;11.774;2023-07-08T13:59:51;7.63;;;3.20;;
74158;SDS011;62511;47.970;11.774;2023-07-08T14:02:18;5.80;;;2.72;;
74158;SDS011;62511;47.970;11.774;2023-07-08T14:04:45;5.70;;;3.40;;
74158;SDS011;62511;47.970;11.774;2023-07-08T14:07:13;5.57;;;3.15;;
74158;SDS011;62511;47.970;11.774;2023-07-08T14:09:41;5.55;;;3.05;;
74158;SDS011;62511;47.970;11.774;2023-07-08T14:12:07;4.90;;;3.20;;
74158;SDS011;62511;47.970;11.774;2023-07-08T14:14:33;7.22;;;3.63;;
74158;SDS011;62511;47.970;11.774;2023-07-08T14:16:59;9.57;;;3.70;;
74158;SDS011;62511;47.970;11.774;2023-07-08T14:19:26;6.72;;;3.47;;
74158;SDS011;62511;47.970;11.774;2023-07-08T14:21:56;7.30;;;3.60;;
74158;SDS011;62511;47.970;11.774;2023-07-08T14:24:22;6.72;;;3.53;;
74158;SDS011;62511;47.970;11.774;2023-07-08T14:26:48;7.25;;;3.35;;
74158;SDS011;62511;47.970;11.774;2023-07-08T14:29:14;7.22;;;3.00;;
74158;SDS011;62511;47.970;11.774;2023-07-08T14:31:40;9.43;;;3.60;;
74158;SDS011;62511;47.970;11.774;2023-07-08T14:36:33;6.57;;;3.00;;
74158;SDS011;62511;47.970;11.774;2023-07-08T14:41:26;4.28;;;2.83;;
74158;SDS011;62511;47.970;11.774;2023-07-08T14:43:52;6.50;;;2.97;;
74158;SDS011;62511;47.970;11.774;2023-07-08T14:46:18;5.88;;;3.25;;
74158;SDS011;62511;47.970;11.774;2023-07-08T14:48:44;6.30;;;3.17;;
74158;SDS011;62511;47.970;11.774;2023-07-08T14:51:10;5.05;;;2.90;;
74158;SDS011;62511;47.970;11.774;2023-07-08T14:53:36;8.07;;;3.25;;
74158;SDS011;62511;47.970;11.774;2023-07-08T14:56:05;4.78;;;2.80;;
74158;SDS011;62511;47.970;11.774;2023-07-08T14:58:32;5.10;;;3.08;;
74158;SDS011;62511;47.970;11.774;2023-07-08T15:01:00;4.70;;;2.90;;
74158;SDS011;62511;47.970;11.774;2023-07-08T15:03:27;5.72;;;2.85;;
74158;SDS011;62511;47.970;11.774;2023-07-08T15:05:54;5.95;;;3.25;;
74158;SDS011;62511;47.970;11.774;2023-07-08T15:08:20;5.22;;;3.10;;
74158;SDS011;62511;47.970;11.774;2023-07-08T15:10:49;7.15;;;3.45;;
74158;SDS011;62511;47.970;11.774;2023-07-08T15:13:16;7.30;;;3.28;;
74158;SDS011;62511;47.970;11.774;2023-07-08T15:15:43;5.78;;;3.35;;
74158;SDS011;62511;47.970;11.774;2023-07-08T15:18:14;7.13;;;3.42;;
74158;SDS011;62511;47.970;11.774;2023-07-08T15:20:41;6.35;;;3.80;;
74158;SDS011;62511;47.970;11.774;2023-07-08T15:23:07;6.45;;;3.28;;
74158;SDS011;62511;47.970;11.774;2023-07-08T15:25:33;7.38;;;3.45;;
74158;SDS011;62511;47.970;11.774;2023-07-08T15:28:00;5.32;;;2.90;;
74158;SDS011;62511;47.970;11.774;2023-07-08T15:30:30;6.15;;;3.15;;
74158;SDS011;62511;47.970;11.774;2023-07-08T15:32:56;6.78;;;3.58;;
74158;SDS011;62511;47.970;11.774;2023-07-08T15:35:27;5.47;;;3.25;;
74158;SDS011;62511;47.970;11.774;2023-07-08T15:37:59;10.32;;;3.58;;
74158;SDS011;62511;47.970;11.774;2023-07-08T15:40:28;5.88;;;3.53;;
74158;SDS011;62511;47.970;11.774;2023-07-08T15:42:55;6.75;;;3.47;;
74158;SDS011;62511;47.970;11.774;2023-07-08T15:45:23;5.90;;;3.55;;
74158;SDS011;62511;47.970;11.774;2023-07-08T15:47:49;8.38;;;3.80;;
74158;SDS011;62511;47.970;11.774;2023-07-08T15:52:42;14.93;;;4.45;;
74158;SDS011;62511;47.970;11.774;2023-07-08T15:57:41;6.75;;;3.35;;
74158;SDS011;62511;47.970;11.774;2023-07-08T16:00:12;11.95;;;4.05;;
74158;SDS011;62511;47.970;11.774;2023-07-08T16:02:38;6.90;;;3.35;;
74158;SDS011;62511;47.970;11.774;2023-07-08T16:05:04;8.13;;;3.78;;